Time;durP1;ratioP1;P1;durP2;ratioP2;P2;SDS_P1;SDS_P2;PMS_P1;PMS_P2;Temp;Humidity;BMP_temperature;BMP_pressure;BME280_temperature;BME280_humidity;BME280_pressure;Samples;Min_cycle;Max_cycle;Signal;HPM_P1;HPM_P2
2023/03/16 00:02:17;;;;;;;20.65;10.63;;;1.50;1.00;;;;;;5061505;28;20388;-54
2023/03/16 00:04:46;;;;;;;21.40;9.90;;;1.40;1.00;;;;;;5060344;28;20380;-53
2023/03/16 00:07:13;;;;;;;23.35;10.10;;;1.40;1.00;;;;;;5061538;28;20384;-54
2023/03/16 00:09:40;;;;;;;18.73;10.23;;;1.40;1.00;;;;;;5060669;28;20482;-53
2023/03/16 00:12:17;;;;;;;19.63;10.48;;;1.40;1.00;;;;;;5060499;28;20464;-54
2023/03/16 00:14:45;;;;;;;23.87;9.53;;;1.50;1.00;;;;;;5059896;28;20407;-53
2023/03/16 00:17:18;;;;;;;23.15;9.90;;;1.50;1.00;;;;;;5062251;28;20478;-54
2023/03/16 00:19:53;;;;;;;23.02;10.10;;;1.50;1.00;;;;;;5061497;28;20372;-54
2023/03/16 00:22:26;;;;;;;19.38;10.07;;;2.70;1.00;;;;;;5059966;28;20385;-53
2023/03/16 00:24:52;;;;;;;23.35;10.20;;;1.50;1.00;;;;;;5056739;28;20388;-53
2023/03/16 00:27:18;;;;;;;19.73;9.98;;;1.50;1.00;;;;;;5060516;28;20392;-53
2023/03/16 00:29:54;;;;;;;22.13;9.95;;;1.40;1.00;;;;;;5060703;28;20401;-54
2023/03/16 00:32:25;;;;;;;19.95;9.50;;;1.40;1.00;;;;;;5059508;28;20408;-54
2023/03/16 00:34:50;;;;;;;25.20;11.20;;;1.40;1.00;;;;;;5056433;28;20389;-54
2023/03/16 00:37:17;;;;;;;23.20;11.23;;;1.50;1.00;;;;;;5060454;28;20376;-55
2023/03/16 00:39:45;;;;;;;22.80;11.77;;;1.50;1.00;;;;;;5060797;28;20377;-54
2023/03/16 00:42:13;;;;;;;22.85;12.32;;;1.40;1.00;;;;;;5057139;28;20397;-54
2023/03/16 00:44:40;;;;;;;21.45;10.13;;;1.40;1.00;;;;;;5059762;28;20421;-54
2023/03/16 00:47:06;;;;;;;22.38;11.07;;;1.40;1.00;;;;;;5061774;28;20396;-54
2023/03/16 00:49:33;;;;;;;21.77;11.40;;;1.50;1.00;;;;;;5056568;28;20447;-54
2023/03/16 00:52:03;;;;;;;21.30;10.63;;;1.50;1.00;;;;;;5059223;28;20407;-54
2023/03/16 00:54:31;;;;;;;22.15;11.75;;;1.50;1.00;;;;;;5060323;28;20397;-58
2023/03/16 00:56:57;;;;;;;23.10;11.20;;;1.40;1.00;;;;;;5059000;28;20471;-55
2023/03/16 00:59:25;;;;;;;22.08;11.57;;;1.50;1.00;;;;;;5060907;28;20380;-54
2023/03/16 01:01:54;;;;;;;21.30;10.93;;;1.40;1.00;;;;;;5059612;28;20492;-54
2023/03/16 01:04:20;;;;;;;24.98;11.10;;;3.20;1.00;;;;;;5058969;28;20405;-54
2023/03/16 01:06:46;;;;;;;21.58;10.13;;;1.30;1.00;;;;;;5059669;28;20756;-54
2023/03/16 01:09:13;;;;;;;21.77;11.50;;;1.40;1.00;;;;;;5060664;28;20386;-54
2023/03/16 01:11:41;;;;;;;27.38;11.15;;;1.30;1.00;;;;;;5058190;28;20410;-54
2023/03/16 01:14:08;;;;;;;18.98;9.45;;;1.40;1.00;;;;;;5060334;28;20806;-54
2023/03/16 01:16:33;;;;;;;20.77;10.45;;;1.50;1.00;;;;;;5059568;28;20412;-57
2023/03/16 01:19:00;;;;;;;21.52;11.57;;;1.80;1.00;;;;;;5059137;28;20412;-54
2023/03/16 01:21:26;;;;;;;22.05;10.82;;;1.60;1.00;;;;;;5060375;28;20403;-54
2023/03/16 01:23:52;;;;;;;21.38;10.68;;;1.60;1.00;;;;;;5042175;28;21268;-54
2023/03/16 01:26:19;;;;;;;24.27;10.85;;;-0.20;1.00;;;;;;5040263;28;20408;-55
2023/03/16 01:28:45;;;;;;;22.42;11.40;;;1.50;1.00;;;;;;5059554;28;20753;-54
2023/03/16 01:31:15;;;;;;;24.02;11.68;;;2.60;1.00;;;;;;5060468;28;20421;-55
2023/03/16 01:33:42;;;;;;;23.20;11.00;;;1.30;1.00;;;;;;5057830;28;20943;-54
2023/03/16 01:36:14;;;;;;;20.58;10.18;;;1.20;1.00;;;;;;5060016;28;20864;-53
2023/03/16 01:38:40;;;;;;;22.73;10.82;;;1.10;1.00;;;;;;5059721;28;20376;-54
2023/03/16 01:41:06;;;;;;;22.70;11.18;;;1.10;1.00;;;;;;5059187;28;20388;-54
2023/03/16 01:43:34;;;;;;;21.73;10.35;;;1.10;1.00;;;;;;5058721;28;20736;-56
2023/03/16 01:46:17;;;;;;;19.27;10.05;;;1.10;1.00;;;;;;5060868;28;20371;-54
2023/03/16 01:49:00;;;;;;;21.90;10.98;;;1.00;1.00;;;;;;5059671;28;20402;-54
2023/03/16 01:51:55;;;;;;;20.45;10.52;;;1.00;1.00;;;;;;5056916;28;20758;-54
2023/03/16 01:54:41;;;;;;;21.25;10.05;;;1.00;1.00;;;;;;5045229;28;20388;-54
2023/03/16 01:57:13;;;;;;;22.48;10.73;;;1.00;1.00;;;;;;5056984;28;20893;-53
2023/03/16 01:59:43;;;;;;;23.92;10.65;;;1.00;1.00;;;;;;5057843;28;20401;-54
2023/03/16 02:02:10;;;;;;;20.65;10.55;;;1.00;1.00;;;;;;5059671;28;20936;-54
2023/03/16 02:04:53;;;;;;;22.05;10.20;;;1.00;1.00;;;;;;5059517;28;20374;-54
2023/03/16 02:07:23;;;;;;;22.75;10.48;;;1.00;1.00;;;;;;5060104;28;20390;-54
2023/03/16 02:09:52;;;;;;;24.00;10.50;;;1.10;1.00;;;;;;5058985;28;20387;-54
2023/03/16 02:12:19;;;;;;;21.52;10.73;;;1.10;1.00;;;;;;5060006;28;20746;-55
2023/03/16 02:14:46;;;;;;;21.77;11.15;;;1.20;1.00;;;;;;5057372;28;20427;-54
2023/03/16 02:17:14;;;;;;;27.45;11.95;;;1.20;1.00;;;;;;5058941;28;20376;-54
2023/03/16 02:20:21;;;;;;;23.33;11.88;;;1.20;1.00;;;;;;5059538;28;20371;-54
2023/03/16 02:22:49;;;;;;;21.50;10.95;;;1.20;1.00;;;;;;5055474;28;20397;-55
2023/03/16 02:25:17;;;;;;;24.98;10.95;;;1.20;1.00;;;;;;5058311;28;20787;-54
2023/03/16 02:27:55;;;;;;;23.98;11.93;;;1.20;1.00;;;;;;5054394;28;20425;-55
2023/03/16 02:30:21;;;;;;;23.03;11.53;;;1.20;1.00;;;;;;5058038;28;20381;-54
2023/03/16 02:32:50;;;;;;;23.73;11.07;;;1.20;1.00;;;;;;5062077;28;20973;-54
2023/03/16 02:35:16;;;;;;;26.55;12.50;;;1.20;1.00;;;;;;5059184;28;20411;-54
2023/03/16 02:37:42;;;;;;;24.95;11.32;;;1.10;1.00;;;;;;5053568;28;20411;-54
2023/03/16 02:40:26;;;;;;;20.05;10.50;;;1.20;1.00;;;;;;5064563;28;20508;-54
2023/03/16 02:43:15;;;;;;;22.65;11.63;;;1.10;1.00;;;;;;5059600;28;20381;-54
2023/03/16 02:45:51;;;;;;;22.92;11.40;;;1.10;1.00;;;;;;5062616;28;20387;-54
2023/03/16 02:48:49;;;;;;;23.20;10.50;;;1.10;1.00;;;;;;5061695;28;20392;-54
2023/03/16 02:51:15;;;;;;;22.02;9.93;;;1.10;1.00;;;;;;5061209;28;20531;-54
2023/03/16 02:53:41;;;;;;;20.80;11.00;;;1.20;1.00;;;;;;5061184;28;20405;-54
2023/03/16 02:56:07;;;;;;;23.58;11.00;;;1.20;1.00;;;;;;5058306;28;20809;-54
2023/03/16 02:58:32;;;;;;;21.10;10.60;;;1.10;1.00;;;;;;5062936;28;20404;-58
2023/03/16 03:00:58;;;;;;;22.02;10.07;;;1.00;1.00;;;;;;5063054;28;20389;-54
2023/03/16 03:03:24;;;;;;;23.73;10.83;;;1.00;1.00;;;;;;5062386;28;20393;-54
2023/03/16 03:05:49;;;;;;;25.83;11.53;;;1.00;1.00;;;;;;5062651;28;20938;-54
2023/03/16 03:08:15;;;;;;;21.35;11.45;;;1.00;1.00;;;;;;5062599;28;20873;-54
2023/03/16 03:10:41;;;;;;;26.03;11.63;;;1.00;1.00;;;;;;5061590;28;20395;-54
2023/03/16 03:13:06;;;;;;;22.00;11.33;;;1.00;1.00;;;;;;5063616;28;20380;-54
2023/03/16 03:15:34;;;;;;;23.00;10.85;;;1.00;1.00;;;;;;5061121;28;20396;-57
2023/03/16 03:18:00;;;;;;;20.52;10.68;;;1.00;1.00;;;;;;5062204;28;20391;-55
2023/03/16 03:20:25;;;;;;;28.25;12.48;;;1.00;1.00;;;;;;5063329;28;20452;-54
2023/03/16 03:22:51;;;;;;;21.23;10.52;;;1.00;1.00;;;;;;5042776;28;20910;-54
2023/03/16 03:25:19;;;;;;;22.75;10.43;;;1.00;1.00;;;;;;5054086;28;20395;-54
2023/03/16 03:27:46;;;;;;;24.27;11.98;;;1.00;1.00;;;;;;5060078;28;20415;-54
2023/03/16 03:30:18;;;;;;;24.65;10.77;;;0.90;1.00;;;;;;5063035;28;20410;-54
2023/03/16 03:32:44;;;;;;;24.15;11.43;;;0.90;1.00;;;;;;5061388;28;20408;-54
2023/03/16 03:35:11;;;;;;;24.50;11.10;;;0.90;1.00;;;;;;5061439;28;20384;-54
2023/03/16 03:37:39;;;;;;;20.80;10.10;;;1.00;1.00;;;;;;5057033;28;20396;-54
2023/03/16 03:40:05;;;;;;;21.50;10.50;;;1.00;1.00;;;;;;5061641;28;20737;-54
2023/03/16 03:42:31;;;;;;;23.90;11.37;;;1.10;1.00;;;;;;5061203;28;20434;-56
2023/03/16 03:44:57;;;;;;;19.50;10.33;;;1.10;1.00;;;;;;5060205;28;20413;-54
2023/03/16 03:47:22;;;;;;;24.00;11.40;;;1.10;1.00;;;;;;5061884;28;20387;-54
2023/03/16 03:49:48;;;;;;;20.97;10.80;;;2.50;1.00;;;;;;5061696;28;20465;-54
2023/03/16 03:52:13;;;;;;;22.65;10.00;;;1.10;1.00;;;;;;5060406;28;20424;-54
2023/03/16 03:54:39;;;;;;;22.67;11.00;;;1.10;1.00;;;;;;5062076;28;20420;-54
2023/03/16 03:57:05;;;;;;;23.90;10.93;;;1.00;1.00;;;;;;5061144;28;20723;-53
2023/03/16 03:59:30;;;;;;;22.25;10.63;;;1.10;1.00;;;;;;5060675;28;20475;-55
2023/03/16 04:01:57;;;;;;;23.70;11.18;;;1.10;1.00;;;;;;5059595;28;20408;-54
2023/03/16 04:04:23;;;;;;;24.98;11.10;;;1.10;1.00;;;;;;5061362;28;20478;-54
2023/03/16 04:06:50;;;;;;;26.23;11.50;;;1.60;1.00;;;;;;5061453;28;20458;-54
2023/03/16 04:09:16;;;;;;;25.50;12.50;;;1.00;1.00;;;;;;5060446;28;20448;-54
2023/03/16 04:11:41;;;;;;;24.77;10.93;;;1.00;1.00;;;;;;5061072;28;20411;-54
2023/03/16 04:14:07;;;;;;;24.83;10.27;;;1.00;1.00;;;;;;5043794;28;20443;-54
2023/03/16 04:16:34;;;;;;;22.30;10.80;;;1.00;1.00;;;;;;5059499;28;20390;-58
2023/03/16 04:19:00;;;;;;;22.75;10.80;;;1.00;1.00;;;;;;5061222;28;21037;-54
2023/03/16 04:21:26;;;;;;;21.45;10.80;;;1.00;1.00;;;;;;5061342;28;20377;-54
2023/03/16 04:23:53;;;;;;;26.27;10.93;;;1.00;1.00;;;;;;5059045;28;20528;-55
2023/03/16 04:26:20;;;;;;;21.60;10.68;;;1.00;1.00;;;;;;5061550;28;20930;-54
2023/03/16 04:28:46;;;;;;;22.17;10.73;;;0.90;1.00;;;;;;5059958;28;20412;-54
2023/03/16 04:31:12;;;;;;;22.88;11.13;;;0.90;1.00;;;;;;5057245;28;20408;-54
2023/03/16 04:33:39;;;;;;;24.52;10.45;;;0.90;1.00;;;;;;5049635;28;20425;-54
2023/03/16 04:36:06;;;;;;;21.92;10.80;;;0.90;1.00;;;;;;5059472;28;20389;-54
2023/03/16 04:38:32;;;;;;;25.10;11.43;;;1.00;1.00;;;;;;5058944;28;20420;-58
2023/03/16 04:40:59;;;;;;;21.83;10.50;;;0.90;1.00;;;;;;5057278;28;20860;-54
2023/03/16 04:43:25;;;;;;;24.13;11.90;;;0.90;1.00;;;;;;5055201;28;20496;-54
2023/03/16 04:45:51;;;;;;;21.60;10.70;;;0.90;1.00;;;;;;5050596;28;20562;-54
2023/03/16 04:48:17;;;;;;;22.35;11.40;;;1.00;1.00;;;;;;5050987;28;20412;-54
2023/03/16 04:50:43;;;;;;;18.10;9.77;;;1.00;1.00;;;;;;5032394;28;20764;-54
2023/03/16 04:53:08;;;;;;;24.58;10.38;;;1.00;1.00;;;;;;5051218;28;20417;-54
2023/03/16 04:55:34;;;;;;;25.10;11.50;;;1.10;1.00;;;;;;5049712;28;20385;-58
2023/03/16 04:58:00;;;;;;;23.83;12.13;;;2.10;1.00;;;;;;5050414;28;20462;-54
2023/03/16 05:00:26;;;;;;;24.05;10.88;;;1.00;1.00;;;;;;5050943;28;20378;-54
2023/03/16 05:02:52;;;;;;;20.17;10.15;;;1.00;1.00;;;;;;5050684;28;20388;-54
2023/03/16 05:05:20;;;;;;;25.85;11.80;;;1.00;1.00;;;;;;5050588;28;20393;-54
2023/03/16 05:07:46;;;;;;;23.10;11.83;;;1.00;1.00;;;;;;5049902;28;20798;-55
2023/03/16 05:10:14;;;;;;;21.30;10.87;;;1.00;1.00;;;;;;5032600;28;20417;-54
2023/03/16 05:12:40;;;;;;;21.92;11.77;;;1.00;1.00;;;;;;5049812;28;20413;-54
2023/03/16 05:15:06;;;;;;;21.60;10.63;;;1.00;1.00;;;;;;5050501;28;20924;-54
2023/03/16 05:17:32;;;;;;;22.73;10.40;;;1.00;1.00;;;;;;5031970;28;20484;-59
2023/03/16 05:19:58;;;;;;;22.10;10.82;;;1.00;1.00;;;;;;5050657;28;20478;-56
2023/03/16 05:22:24;;;;;;;19.38;9.98;;;1.00;1.00;;;;;;5059032;28;20959;-54
2023/03/16 05:24:50;;;;;;;22.75;10.10;;;1.00;1.00;;;;;;5060300;28;20463;-55
2023/03/16 05:27:15;;;;;;;23.13;10.43;;;1.00;1.00;;;;;;5058898;28;20489;-55
2023/03/16 05:29:45;;;;;;;19.83;9.77;;;1.10;1.00;;;;;;5058903;28;20465;-54
2023/03/16 05:32:12;;;;;;;19.90;9.82;;;1.10;1.00;;;;;;5060180;28;20490;-54
2023/03/16 05:34:42;;;;;;;16.48;9.18;;;1.00;1.00;;;;;;5057867;28;20504;-55
2023/03/16 05:37:08;;;;;;;22.60;10.95;;;1.10;1.00;;;;;;5058937;28;20391;-55
2023/03/16 05:39:34;;;;;;;21.30;9.35;;;1.10;1.00;;;;;;5055546;28;20378;-57
2023/03/16 05:41:59;;;;;;;34.42;14.45;;;1.10;1.00;;;;;;5035707;28;20451;-55
2023/03/16 05:44:25;;;;;;;25.33;11.60;;;1.10;1.00;;;;;;5050099;28;20468;-55
2023/03/16 05:46:50;;;;;;;29.30;12.55;;;1.10;1.00;;;;;;5049150;28;20427;-55
2023/03/16 05:49:16;;;;;;;23.70;12.05;;;1.20;1.00;;;;;;5049353;28;20390;-54
2023/03/16 05:51:42;;;;;;;28.60;12.80;;;1.20;1.00;;;;;;5049017;28;20413;-54
2023/03/16 05:54:08;;;;;;;21.73;11.27;;;1.30;1.00;;;;;;5049712;28;20401;-55
2023/03/16 05:56:34;;;;;;;23.30;10.55;;;1.40;1.00;;;;;;5049659;28;20405;-58
2023/03/16 05:58:59;;;;;;;20.98;10.52;;;1.50;1.00;;;;;;5049112;28;20481;-54
2023/03/16 06:01:25;;;;;;;27.63;11.37;;;1.60;1.00;;;;;;5048025;28;20770;-54
2023/03/16 06:03:51;;;;;;;21.77;10.00;;;1.80;1.00;;;;;;5049067;28;20392;-54
2023/03/16 06:06:19;;;;;;;23.27;10.95;;;1.90;1.00;;;;;;5049099;28;20382;-54
2023/03/16 06:08:45;;;;;;;28.10;12.48;;;2.20;1.00;;;;;;5030849;28;20754;-54
2023/03/16 06:11:11;;;;;;;23.45;12.10;;;2.60;1.00;;;;;;5049565;28;20405;-55
2023/03/16 06:13:37;;;;;;;24.52;11.82;;;3.30;1.00;;;;;;5049478;28;20430;-55
2023/03/16 06:16:05;;;;;;;23.70;11.50;;;4.80;1.00;;;;;;5049825;28;20385;-54
2023/03/16 06:18:31;;;;;;;19.45;9.38;;;4.50;1.00;;;;;;5049504;28;20389;-54
2023/03/16 06:20:56;;;;;;;24.90;10.00;;;5.90;1.00;;;;;;5048781;28;20373;-54
2023/03/16 06:23:22;;;;;;;26.13;10.93;;;4.40;1.00;;;;;;5049594;28;20388;-54
2023/03/16 06:25:48;;;;;;;22.27;10.03;;;4.90;1.00;;;;;;5048827;28;20420;-54
2023/03/16 06:28:14;;;;;;;22.23;9.75;;;6.50;99.90;;;;;;5049100;28;20408;-54
2023/03/16 06:30:40;;;;;;;20.20;10.23;;;6.20;99.90;;;;;;5050698;28;20798;-55
2023/03/16 06:33:06;;;;;;;21.27;9.10;;;7.00;99.90;;;;;;5049013;28;20409;-55
2023/03/16 06:35:32;;;;;;;17.67;8.88;;;7.40;94.90;;;;;;5049800;28;20396;-54
2023/03/16 06:37:58;;;;;;;17.37;8.17;;;8.40;1.00;;;;;;5048712;28;20977;-55
2023/03/16 06:40:23;;;;;;;17.05;9.13;;;8.70;1.00;;;;;;5048741;28;20367;-55
2023/03/16 06:42:49;;;;;;;17.57;8.57;;;9.10;1.00;;;;;;5048624;28;20390;-55
2023/03/16 06:45:16;;;;;;;16.45;8.30;;;9.20;1.00;;;;;;5049343;28;20373;-55
2023/03/16 06:47:43;;;;;;;14.80;7.30;;;9.30;1.00;;;;;;5048227;28;20448;-54
2023/03/16 06:50:10;;;;;;;16.63;7.65;;;9.60;1.00;;;;;;5049478;28;20433;-55
2023/03/16 06:52:36;;;;;;;17.02;7.90;;;9.90;1.00;;;;;;5048327;28;20950;-59
2023/03/16 06:55:01;;;;;;;17.25;7.28;;;10.10;99.90;;;;;;5048383;28;20488;-55
2023/03/16 06:57:27;;;;;;;15.88;7.97;;;10.10;99.90;;;;;;5049120;28;20735;-55
2023/03/16 06:59:53;;;;;;;16.00;7.90;;;10.40;99.90;;;;;;5048228;28;20688;-55
2023/03/16 07:02:19;;;;;;;18.13;9.10;;;11.00;99.90;;;;;;5049194;28;20781;-55
2023/03/16 07:04:45;;;;;;;17.15;8.70;;;11.50;99.90;;;;;;5041691;28;20401;-55
2023/03/16 07:07:11;;;;;;;16.20;8.60;;;11.40;99.90;;;;;;5047623;28;20397;-54
2023/03/16 07:09:37;;;;;;;16.10;8.20;;;11.80;1.00;;;;;;5048280;28;20413;-55
2023/03/16 07:12:03;;;;;;;17.10;9.10;;;12.10;99.90;;;;;;5049022;28;20405;-54
2023/03/16 07:14:30;;;;;;;18.43;10.57;;;12.70;99.90;;;;;;5048596;28;20397;-55
2023/03/16 07:16:56;;;;;;;18.90;13.10;;;13.70;99.90;;;;;;5048578;28;20439;-55
2023/03/16 07:19:22;;;;;;;17.38;13.35;;;14.30;99.90;;;;;;5052433;28;20386;-54
2023/03/16 07:21:48;;;;;;;17.60;10.23;;;14.80;99.90;;;;;;5051308;28;20858;-55
2023/03/16 07:24:14;;;;;;;19.38;9.35;;;14.70;99.90;;;;;;5052777;28;20933;-54
2023/03/16 07:26:40;;;;;;;15.83;8.83;;;14.30;99.90;;;;;;5051899;28;20867;-55
2023/03/16 07:29:06;;;;;;;19.35;9.90;;;13.80;99.90;;;;;;5052431;28;20743;-55
2023/03/16 07:31:32;;;;;;;18.40;10.10;;;14.10;99.90;;;;;;5052111;28;20413;-55
2023/03/16 07:33:58;;;;;;;19.00;9.90;;;14.50;99.90;;;;;;5051728;28;20396;-55
2023/03/16 07:36:24;;;;;;;21.15;9.88;;;14.20;99.90;;;;;;5051908;28;20480;-54
2023/03/16 07:38:50;;;;;;;20.15;15.57;;;14.00;99.90;;;;;;5051407;28;20461;-55
2023/03/16 07:41:16;;;;;;;20.70;13.80;;;14.50;99.90;;;;;;5052100;28;20400;-55
2023/03/16 07:43:43;;;;;;;19.73;10.98;;;14.70;99.90;;;;;;5051306;28;20402;-55
2023/03/16 07:46:12;;;;;;;20.30;10.30;;;14.70;99.90;;;;;;5052104;28;20400;-55
2023/03/16 07:48:42;;;;;;;17.30;10.55;;;14.30;99.90;;;;;;5051297;28;20421;-59
2023/03/16 07:51:09;;;;;;;17.48;9.70;;;14.50;99.90;;;;;;5051666;28;20501;-55
2023/03/16 07:53:35;;;;;;;15.60;8.50;;;15.30;99.90;;;;;;5033720;28;20914;-59
2023/03/16 07:56:00;;;;;;;17.52;8.80;;;15.50;99.90;;;;;;5050987;28;20512;-55
2023/03/16 07:58:26;;;;;;;18.07;9.20;;;15.30;99.90;;;;;;5051598;28;20390;-55
2023/03/16 08:00:57;;;;;;;15.30;8.60;;;15.40;99.90;;;;;;5051279;28;20859;-55
2023/03/16 08:03:23;;;;;;;19.10;10.05;;;14.80;99.90;;;;;;5051822;28;20385;-55
2023/03/16 08:05:49;;;;;;;18.10;9.40;;;15.00;99.90;;;;;;5032885;28;20819;-55
2023/03/16 08:08:15;;;;;;;16.02;8.23;;;15.70;99.90;;;;;;5051605;28;20461;-55
2023/03/16 08:10:40;;;;;;;15.73;8.90;;;15.80;99.90;;;;;;5051054;28;20389;-56
2023/03/16 08:13:06;;;;;;;18.30;9.40;;;16.00;99.90;;;;;;5051235;28;20417;-55
2023/03/16 08:15:33;;;;;;;16.52;8.93;;;16.50;99.90;;;;;;5051763;28;20421;-55
2023/03/16 08:18:01;;;;;;;18.83;9.73;;;16.80;99.90;;;;;;5051257;28;20386;-55
2023/03/16 08:20:27;;;;;;;23.60;9.80;;;;;;;;;;5052086;28;20730;-55
2023/03/16 08:22:53;;;;;;;18.17;10.15;;;16.80;99.90;;;;;;5050258;28;20377;-55
2023/03/16 08:25:20;;;;;;;16.07;8.60;;;16.90;99.90;;;;;;5051461;28;20473;-55
2023/03/16 08:27:47;;;;;;;17.05;9.02;;;17.10;99.90;;;;;;5049638;28;20420;-56
2023/03/16 08:30:14;;;;;;;19.80;14.25;;;16.90;99.90;;;;;;5050441;28;20492;-55
2023/03/16 08:32:40;;;;;;;20.33;15.23;;;16.60;99.90;;;;;;5050068;28;20409;-57
2023/03/16 08:35:15;;;;;;;23.63;15.38;;;17.10;99.90;;;;;;5050852;28;20378;-56
2023/03/16 08:37:41;;;;;;;19.95;9.90;;;;;;;;;;5050114;28;20477;-56
2023/03/16 08:40:14;;;;;;;17.42;9.50;;;18.00;99.90;;;;;;5051073;28;20911;-56
2023/03/16 08:42:40;;;;;;;14.80;8.90;;;18.00;99.90;;;;;;5050747;28;20377;-56
2023/03/16 08:45:08;;;;;;;16.85;8.82;;;17.60;99.90;;;;;;5051214;28;20915;-55
2023/03/16 08:47:39;;;;;;;20.17;15.80;;;17.20;99.90;;;;;;5050958;28;20380;-56
2023/03/16 08:50:06;;;;;;;18.92;14.95;;;16.50;99.90;;;;;;5051081;28;20393;-55
2023/03/16 08:52:32;;;;;;;17.55;13.90;;;15.90;99.90;;;;;;5050783;28;20409;-55
2023/03/16 08:54:58;;;;;;;16.50;13.23;;;15.60;99.90;;;;;;5050458;28;20447;-56
2023/03/16 08:57:25;;;;;;;18.83;12.48;;;14.70;99.90;;;;;;5051286;28;20401;-56
2023/03/16 08:59:50;;;;;;;15.75;11.55;;;14.70;99.90;;;;;;5049946;28;20386;-55
2023/03/16 09:02:17;;;;;;;17.67;11.77;;;14.90;99.90;;;;;;5050675;28;20389;-55
2023/03/16 09:04:43;;;;;;;16.00;12.02;;;15.30;99.90;;;;;;5049910;28;20881;-56
2023/03/16 09:07:08;;;;;;;14.63;11.20;;;15.60;99.90;;;;;;5050114;28;20393;-56
2023/03/16 09:09:34;;;;;;;14.83;12.50;;;16.40;99.90;;;;;;5050605;28;20381;-56
2023/03/16 09:12:01;;;;;;;14.82;11.75;;;16.80;99.90;;;;;;5049731;28;20409;-56
2023/03/16 09:14:26;;;;;;;16.77;12.27;;;17.40;99.90;;;;;;5049924;28;20396;-56
2023/03/16 09:16:52;;;;;;;15.47;11.70;;;17.80;99.90;;;;;;5049763;28;20373;-56
2023/03/16 09:19:18;;;;;;;14.17;11.60;;;17.50;99.90;;;;;;5050611;28;20377;-56
2023/03/16 09:21:44;;;;;;;12.25;10.32;;;17.40;99.90;;;;;;5049597;28;20393;-56
2023/03/16 09:24:10;;;;;;;12.95;10.75;;;16.40;99.90;;;;;;5049912;28;20382;-55
2023/03/16 09:26:36;;;;;;;14.20;10.30;;;16.00;99.90;;;;;;5050066;28;20873;-60
2023/03/16 09:29:02;;;;;;;12.18;9.20;;;16.10;99.90;;;;;;5048988;28;20462;-56
2023/03/16 09:31:28;;;;;;;12.77;9.90;;;15.70;99.90;;;;;;5050045;28;20414;-55
2023/03/16 09:33:55;;;;;;;11.70;8.50;;;15.30;99.90;;;;;;5049444;28;20377;-55
2023/03/16 09:36:20;;;;;;;14.88;8.80;;;15.30;99.90;;;;;;5049985;28;20443;-55
2023/03/16 09:38:47;;;;;;;12.90;8.70;;;15.90;99.90;;;;;;5049365;28;20393;-55
2023/03/16 09:41:40;;;;;;;11.80;8.52;;;15.70;99.90;;;;;;5049928;28;20432;-56
2023/03/16 09:44:17;;;;;;;12.50;9.20;;;16.30;99.90;;;;;;5050132;28;20385;-56
2023/03/16 09:46:45;;;;;;;12.13;8.70;;;16.20;99.90;;;;;;5049428;28;20404;-56
2023/03/16 09:49:14;;;;;;;11.38;8.52;;;16.10;99.90;;;;;;5049814;28;20428;-55
2023/03/16 09:52:05;;;;;;;11.32;7.70;;;16.00;99.90;;;;;;5048851;28;20504;-55
2023/03/16 09:54:57;;;;;;;11.93;9.80;;;16.50;99.90;;;;;;5049860;28;20377;-55
2023/03/16 09:57:29;;;;;;;10.85;9.13;;;16.60;99.90;;;;;;5049618;28;20397;-55
2023/03/16 09:59:59;;;;;;;10.97;8.50;;;16.60;99.90;;;;;;5048386;28;20475;-55
2023/03/16 10:02:47;;;;;;;12.00;9.27;;;16.00;99.90;;;;;;5049678;28;20389;-56
2023/03/16 10:05:15;;;;;;;13.32;8.70;;;16.40;99.90;;;;;;5049356;28;20385;-55
2023/03/16 10:08:02;;;;;;;11.57;8.70;;;17.10;99.90;;;;;;5031132;28;20799;-56
2023/03/16 10:10:48;;;;;;;12.25;8.43;;;16.70;99.90;;;;;;5049681;28;20421;-55
2023/03/16 10:13:26;;;;;;;12.18;8.90;;;16.30;99.90;;;;;;5049960;28;20748;-55
2023/03/16 10:15:53;;;;;;;11.37;8.87;;;15.10;99.90;;;;;;5048681;28;20858;-55
2023/03/16 10:18:28;;;;;;;10.48;7.63;;;15.00;99.90;;;;;;5048877;28;20909;-55
2023/03/16 10:20:54;;;;;;;12.87;8.00;;;15.00;99.90;;;;;;5049109;28;20479;-55
2023/03/16 10:23:23;;;;;;;11.98;7.15;;;15.10;99.90;;;;;;5049552;28;20381;-55
2023/03/16 10:25:54;;;;;;;11.03;7.33;;;14.70;99.90;;;;;;5048736;28;20393;-55
2023/03/16 10:28:25;;;;;;;12.27;7.65;;;14.70;99.90;;;;;;5048932;28;20413;-55
2023/03/16 10:30:53;;;;;;;10.20;7.28;;;15.00;99.90;;;;;;5048717;28;20946;-55
2023/03/16 10:33:27;;;;;;;10.30;7.03;;;15.00;99.90;;;;;;5049620;28;20393;-55
2023/03/16 10:36:02;;;;;;;8.95;6.80;;;15.20;99.90;;;;;;5048728;28;20381;-56
2023/03/16 10:38:37;;;;;;;10.30;8.00;;;15.60;99.90;;;;;;5049218;28;20442;-56
2023/03/16 10:41:26;;;;;;;10.80;7.38;;;15.90;99.90;;;;;;5048640;28;20401;-56
2023/03/16 10:44:13;;;;;;;13.45;7.88;;;16.30;99.90;;;;;;5047797;28;20390;-55
2023/03/16 10:46:41;;;;;;;11.85;7.65;;;16.90;99.90;;;;;;5048252;28;20492;-56
2023/03/16 10:49:24;;;;;;;11.40;7.97;;;17.20;99.90;;;;;;5049401;28;20386;-56
2023/03/16 10:51:51;;;;;;;10.73;7.72;;;17.60;99.90;;;;;;5049152;28;20404;-57
2023/03/16 10:54:34;;;;;;;10.23;8.10;;;17.70;99.90;;;;;;5053303;28;20412;-55
2023/03/16 10:57:32;;;;;;;9.52;7.85;;;17.90;99.90;;;;;;5052500;28;20571;-55
2023/03/16 11:00:11;;;;;;;10.40;8.15;;;17.80;99.90;;;;;;5051968;28;20402;-56
2023/03/16 11:02:38;;;;;;;9.40;7.95;;;17.50;99.90;;;;;;5053046;28;20397;-55
2023/03/16 11:05:32;;;;;;;9.23;7.10;;;16.60;99.90;;;;;;5052815;28;20498;-55
2023/03/16 11:08:08;;;;;;;9.27;7.00;;;16.20;99.90;;;;;;5052331;28;20396;-56
2023/03/16 11:10:37;;;;;;;10.30;7.63;;;15.90;99.90;;;;;;5052541;28;20469;-55
2023/03/16 11:13:10;;;;;;;9.27;6.90;;;16.40;99.90;;;;;;5051856;28;20449;-56
2023/03/16 11:15:39;;;;;;;9.95;6.97;;;16.50;99.90;;;;;;5052499;28;20390;-56
2023/03/16 11:18:13;;;;;;;9.35;6.57;;;16.90;99.90;;;;;;5052994;28;20416;-56
2023/03/16 11:20:38;;;;;;;9.90;6.90;;;17.00;99.90;;;;;;5052430;28;20385;-60
2023/03/16 11:23:15;;;;;;;9.68;6.85;;;17.10;99.90;;;;;;5052409;28;20389;-56
2023/03/16 11:25:47;;;;;;;12.20;6.93;;;16.90;99.90;;;;;;5051608;28;20750;-56
2023/03/16 11:28:23;;;;;;;8.80;6.22;;;16.50;99.90;;;;;;5052144;28;20423;-55
2023/03/16 11:31:18;;;;;;;8.50;6.20;;;16.40;99.90;;;;;;5051863;28;20404;-56
2023/03/16 11:33:46;;;;;;;9.75;6.53;;;16.20;99.90;;;;;;5051959;28;20793;-55
2023/03/16 11:36:18;;;;;;;8.98;6.13;;;15.90;99.90;;;;;;5052256;28;20750;-56
2023/03/16 11:38:52;;;;;;;10.45;6.63;;;15.90;99.90;;;;;;5051213;28;20400;-56
2023/03/16 11:41:47;;;;;;;9.40;5.97;;;15.40;99.90;;;;;;5052127;28;20385;-55
2023/03/16 11:44:35;;;;;;;9.48;5.95;;;14.40;99.90;;;;;;5052153;28;20437;-55
2023/03/16 11:47:38;;;;;;;10.45;6.22;;;13.80;99.90;;;;;;5051251;28;20392;-55
2023/03/16 11:50:23;;;;;;;9.80;6.40;;;13.70;99.90;;;;;;5051370;28;20431;-55
2023/03/16 11:53:00;;;;;;;10.50;6.03;;;13.60;99.90;;;;;;5051620;28;20448;-55
2023/03/16 11:55:41;;;;;;;9.80;6.30;;;13.60;99.90;;;;;;5051938;28;20395;-55
2023/03/16 11:58:07;;;;;;;8.27;5.63;;;13.60;99.90;;;;;;5052170;28;20409;-55
2023/03/16 12:00:51;;;;;;;8.90;4.97;;;13.50;99.90;;;;;;5051534;28;20393;-55
2023/03/16 12:03:41;;;;;;;7.70;4.20;;;13.70;99.90;;;;;;5050923;28;20385;-59
2023/03/16 12:06:24;;;;;;;8.98;5.13;;;14.10;99.90;;;;;;5051323;28;20386;-55
2023/03/16 12:09:09;;;;;;;9.70;5.50;;;13.70;99.90;;;;;;5051151;28;20382;-55
2023/03/16 12:11:50;;;;;;;9.88;5.50;;;13.80;99.90;;;;;;5051488;28;20413;-55
2023/03/16 12:14:36;;;;;;;9.10;5.22;;;14.30;99.90;;;;;;5051411;28;20783;-57
2023/03/16 12:17:13;;;;;;;9.97;5.40;;;14.30;99.90;;;;;;5050924;28;20377;-55
2023/03/16 12:19:57;;;;;;;8.95;5.30;;;14.20;99.90;;;;;;5051162;28;20474;-60
2023/03/16 12:22:32;;;;;;;8.30;5.13;;;14.40;99.90;;;;;;5051259;28;20712;-55
2023/03/16 12:24:58;;;;;;;9.20;5.20;;;14.60;99.90;;;;;;5050860;28;20385;-56
2023/03/16 12:27:36;;;;;;;7.97;4.70;;;14.60;99.90;;;;;;5032732;28;20933;-55
2023/03/16 12:30:26;;;;;;;8.93;5.30;;;14.80;99.90;;;;;;5050373;28;20381;-55
2023/03/16 12:33:13;;;;;;;8.48;5.00;;;15.00;99.90;;;;;;5050448;28;20844;-55
2023/03/16 12:35:54;;;;;;;8.55;5.40;;;15.00;99.90;;;;;;5050899;28;20385;-59
2023/03/16 12:38:37;;;;;;;8.40;5.20;;;15.40;99.90;;;;;;5051117;28;20389;-55
2023/03/16 12:41:35;;;;;;;9.50;4.85;;;14.80;99.90;;;;;;5050498;28;20387;-55
2023/03/16 12:44:10;;;;;;;9.00;4.97;;;14.10;99.90;;;;;;5050785;28;20421;-55
2023/03/16 12:46:47;;;;;;;8.55;4.45;;;13.70;99.90;;;;;;5050756;28;20548;-55
2023/03/16 12:49:13;;;;;;;9.05;5.00;;;13.80;99.90;;;;;;5051003;28;20381;-55
2023/03/16 12:51:41;;;;;;;8.65;5.20;;;14.00;99.90;;;;;;5050972;28;20410;-55
2023/03/16 12:54:24;;;;;;;8.63;4.57;;;14.10;99.90;;;;;;5050315;28;20488;-53
2023/03/16 12:56:53;;;;;;;8.68;4.50;;;13.90;99.90;;;;;;5049582;28;20407;-54
2023/03/16 12:59:22;;;;;;;7.15;3.90;;;13.70;99.90;;;;;;5050601;28;20385;-55